createdAt,value
2023-03-15T00:00:01.213Z,2.1
2023-03-15T00:01:01.819Z,1.7
2023-03-15T00:02:01.599Z,1.5
2023-03-15T00:03:01.046Z,1.3
2023-03-15T00:04:01.711Z,1.1
2023-03-15T00:05:01.302Z,1.1
2023-03-15T00:06:00.889Z,1
2023-03-15T00:07:01.454Z,1
2023-03-15T00:08:02.318Z,1
2023-03-15T00:09:01.590Z,1
2023-03-15T00:10:01.180Z,1
2023-03-15T00:11:01.804Z,1
2023-03-15T00:12:01.390Z,1
2023-03-15T00:13:00.980Z,1
2023-03-15T00:14:01.563Z,0.9
2023-03-15T00:15:01.195Z,0.9
2023-03-15T00:16:01.800Z,0.9
2023-03-15T00:17:01.435Z,1
2023-03-15T00:18:00.999Z,1
2023-03-15T00:19:01.545Z,1
2023-03-15T00:20:01.135Z,1
2023-03-15T00:21:01.722Z,1.1
2023-03-15T00:22:01.317Z,1.1
2023-03-15T00:23:00.932Z,1.1
2023-03-15T00:24:01.492Z,1.2
2023-03-15T00:25:01.142Z,1.1
2023-03-15T00:26:01.726Z,1.2
2023-03-15T00:27:01.324Z,1.1
2023-03-15T00:28:00.919Z,1.1
2023-03-15T00:29:01.478Z,1.1
2023-03-15T00:30:01.092Z,1.1
2023-03-15T00:31:01.786Z,1.1
2023-03-15T00:32:01.303Z,1.1
2023-03-15T00:33:00.897Z,1.2
2023-03-15T00:34:01.470Z,1.2
2023-03-15T00:35:01.081Z,1.3
2023-03-15T00:36:01.687Z,1.3
2023-03-15T00:37:01.305Z,1.3
2023-03-15T00:38:00.899Z,1.3
2023-03-15T00:39:01.482Z,1.3
2023-03-15T00:40:01.077Z,1.3
2023-03-15T00:41:01.746Z,1.3
2023-03-15T00:42:01.308Z,1.3
2023-03-15T00:43:00.881Z,1.4
2023-03-15T00:44:01.485Z,1.5
2023-03-15T00:45:01.138Z,1.5
2023-03-15T00:46:00.828Z,1.6
2023-03-15T00:47:01.450Z,1.6
2023-03-15T00:48:00.961Z,1.6
2023-03-15T00:49:01.525Z,1.6
2023-03-15T00:50:01.149Z,1.6
2023-03-15T00:51:01.694Z,1.6
2023-03-15T00:52:01.281Z,1.7
2023-03-15T00:53:00.866Z,1.8
2023-03-15T00:54:01.452Z,1.8
2023-03-15T00:55:01.056Z,1.8
2023-03-15T00:56:01.646Z,1.9
2023-03-15T00:57:01.247Z,1.8
2023-03-15T00:58:00.827Z,1.9
2023-03-15T00:59:01.406Z,2
2023-03-15T01:00:01.018Z,2
2023-03-15T01:01:01.583Z,2.1
2023-03-15T01:02:01.236Z,2
2023-03-15T01:03:01.908Z,2
2023-03-15T01:04:01.525Z,2
2023-03-15T01:05:01.010Z,2.1
2023-03-15T01:06:01.584Z,2.2
2023-03-15T01:07:01.202Z,2.3
2023-03-15T01:08:01.756Z,2.3
2023-03-15T01:09:01.353Z,2.3
2023-03-15T01:10:00.941Z,2.4
2023-03-15T01:11:01.528Z,2.5
2023-03-15T01:12:01.138Z,2.6
2023-03-15T01:13:01.708Z,2.5
2023-03-15T01:14:01.308Z,2.5
2023-03-15T01:15:00.886Z,2.5
2023-03-15T01:16:01.509Z,2.5
2023-03-15T01:17:01.129Z,2.4
2023-03-15T01:18:01.689Z,2.4
2023-03-15T01:19:01.308Z,2.5
2023-03-15T01:20:00.859Z,2.5
2023-03-15T01:21:01.427Z,2.5
2023-03-15T01:22:01.038Z,2.5
2023-03-15T01:23:01.589Z,2.6
2023-03-15T01:24:01.197Z,2.6
2023-03-15T01:25:01.764Z,2.6
2023-03-15T01:26:01.358Z,2.6
2023-03-15T01:27:00.946Z,2.6
2023-03-15T01:28:01.549Z,2.7
2023-03-15T01:29:01.140Z,2.7
2023-03-15T01:30:01.715Z,2.7
2023-03-15T01:31:01.375Z,2.6
2023-03-15T01:32:00.962Z,2.6
2023-03-15T01:33:01.535Z,2.6
2023-03-15T01:34:01.162Z,2.5
2023-03-15T01:35:01.742Z,2.5
2023-03-15T01:36:01.410Z,2.5
2023-03-15T01:37:00.982Z,2.4
2023-03-15T01:38:01.515Z,2.5
2023-03-15T01:39:01.137Z,2.5
2023-03-15T01:40:01.693Z,2.4
2023-03-15T01:41:01.289Z,2.4
2023-03-15T01:42:00.862Z,2.4
2023-03-15T01:43:01.435Z,2.4
2023-03-15T01:44:01.052Z,2.4
2023-03-15T01:45:01.612Z,2.4
2023-03-15T01:46:01.202Z,2.4
2023-03-15T01:47:00.935Z,2.4
2023-03-15T01:48:01.354Z,2.4
2023-03-15T01:49:00.975Z,2.4
2023-03-15T01:50:01.525Z,2.3
2023-03-15T01:51:01.146Z,2.3
2023-03-15T01:52:01.706Z,2.3
2023-03-15T01:53:01.290Z,2.3
2023-03-15T01:54:00.899Z,2.3
2023-03-15T01:55:01.446Z,2.3
2023-03-15T01:56:01.116Z,2.3
2023-03-15T01:57:01.676Z,2.3
2023-03-15T01:58:01.266Z,2.3
2023-03-15T01:59:00.857Z,2.3
2023-03-15T02:00:01.434Z,2.3
2023-03-15T02:01:01.049Z,2.3
2023-03-15T02:02:01.711Z,2.3
2023-03-15T02:03:01.245Z,2.4
2023-03-15T02:04:00.818Z,2.3
2023-03-15T02:05:01.424Z,2.3
2023-03-15T02:06:01.017Z,2.3
2023-03-15T02:07:01.763Z,2.3
2023-03-15T02:08:01.252Z,2.4
2023-03-15T02:09:00.828Z,2.4
2023-03-15T02:10:01.423Z,2.4
2023-03-15T02:11:01.013Z,2.4
2023-03-15T02:12:01.604Z,2.4
2023-03-15T02:13:01.189Z,2.4
2023-03-15T02:14:01.780Z,2.4
2023-03-15T02:15:01.390Z,2.4
2023-03-15T02:16:01.031Z,2.4
2023-03-15T02:17:01.561Z,2.4
2023-03-15T02:18:01.172Z,2.4
2023-03-15T02:19:01.744Z,2.5
2023-03-15T02:20:01.363Z,2.5
2023-03-15T02:21:00.950Z,2.4
2023-03-15T02:22:01.537Z,2.5
2023-03-15T02:23:01.174Z,2.4
2023-03-15T02:24:01.715Z,2.4
2023-03-15T02:25:01.325Z,2.3
2023-03-15T02:26:00.894Z,2.4
2023-03-15T02:27:01.522Z,2.3
2023-03-15T02:28:01.118Z,2.3
2023-03-15T02:29:01.697Z,2.3
2023-03-15T02:30:01.303Z,2.3
2023-03-15T02:31:00.859Z,2.4
2023-03-15T02:32:01.497Z,2.3
2023-03-15T02:33:01.115Z,2.3
2023-03-15T02:34:01.666Z,2.3
2023-03-15T02:35:01.273Z,2.4
2023-03-15T02:36:00.918Z,2.3
2023-03-15T02:37:01.417Z,2.3
2023-03-15T02:38:01.021Z,2.3
2023-03-15T02:39:01.632Z,2.3
2023-03-15T02:40:01.218Z,2.3
2023-03-15T02:41:01.795Z,2.4
2023-03-15T02:42:01.385Z,2.4
2023-03-15T02:43:00.975Z,2.5
2023-03-15T02:44:01.570Z,2.4
2023-03-15T02:45:01.174Z,2.4
2023-03-15T02:46:01.797Z,2.4
2023-03-15T02:47:01.500Z,2.4
2023-03-15T02:48:00.970Z,2.4
2023-03-15T02:49:01.558Z,2.4
2023-03-15T02:50:01.166Z,2.5
2023-03-15T02:51:01.737Z,2.5
2023-03-15T02:52:01.329Z,2.4
2023-03-15T02:53:00.954Z,2.5
2023-03-15T02:54:01.518Z,2.4
2023-03-15T02:55:01.140Z,2.4
2023-03-15T02:56:01.684Z,2.4
2023-03-15T02:57:01.272Z,2.5
2023-03-15T02:58:00.885Z,2.4
2023-03-15T02:59:01.438Z,2.4
2023-03-15T03:00:01.029Z,2.4
2023-03-15T03:01:01.652Z,2.5
2023-03-15T03:02:01.300Z,2.5
2023-03-15T03:03:00.835Z,2.5
2023-03-15T03:04:01.407Z,2.5
2023-03-15T03:05:01.001Z,2.5
2023-03-15T03:06:01.576Z,2.4
2023-03-15T03:07:01.208Z,2.4
2023-03-15T03:08:01.776Z,2.5
2023-03-15T03:09:01.369Z,2.5
2023-03-15T03:10:00.962Z,2.5
2023-03-15T03:11:01.562Z,2.5
2023-03-15T03:12:01.174Z,2.5
2023-03-15T03:13:01.751Z,2.5
2023-03-15T03:14:01.342Z,2.5
2023-03-15T03:15:00.932Z,2.5
2023-03-15T03:16:01.541Z,2.5
2023-03-15T03:17:01.250Z,2.6
2023-03-15T03:18:01.739Z,2.5
2023-03-15T03:19:01.336Z,2.5
2023-03-15T03:20:00.917Z,2.5
2023-03-15T03:21:01.480Z,2.5
2023-03-15T03:22:01.066Z,2.5
2023-03-15T03:23:01.664Z,2.5
2023-03-15T03:24:01.253Z,2.5
2023-03-15T03:25:00.829Z,2.6
2023-03-15T03:26:01.409Z,2.6
2023-03-15T03:27:01.025Z,2.5
2023-03-15T03:28:01.599Z,2.5
2023-03-15T03:29:01.185Z,2.6
2023-03-15T03:30:01.794Z,2.6
2023-03-15T03:31:01.439Z,2.6
2023-03-15T03:32:00.982Z,2.6
2023-03-15T03:33:01.645Z,2.6
2023-03-15T03:34:01.207Z,2.6
2023-03-15T03:35:01.811Z,2.6
2023-03-15T03:36:01.450Z,2.6
2023-03-15T03:37:01.016Z,2.5
2023-03-15T03:38:01.615Z,2.5
2023-03-15T03:39:01.205Z,2.6
2023-03-15T03:40:01.818Z,2.5
2023-03-15T03:41:01.418Z,2.6
2023-03-15T03:42:01.008Z,2.5
2023-03-15T03:43:01.686Z,2.5
2023-03-15T03:44:01.231Z,2.5
2023-03-15T03:45:00.798Z,2.5
2023-03-15T03:46:01.426Z,2.5
2023-03-15T03:47:01.045Z,2.5
2023-03-15T03:48:01.756Z,2.5
2023-03-15T03:49:01.269Z,2.5
2023-03-15T03:50:00.853Z,2.5
2023-03-15T03:51:01.442Z,2.5
2023-03-15T03:52:01.047Z,2.5
2023-03-15T03:53:01.636Z,2.5
2023-03-15T03:54:01.227Z,2.5
2023-03-15T03:55:00.803Z,2.5
2023-03-15T03:56:01.380Z,2.5
2023-03-15T03:57:00.971Z,2.5
2023-03-15T03:58:01.563Z,2.4
2023-03-15T03:59:01.181Z,2.4
2023-03-15T04:00:01.733Z,2.5
2023-03-15T04:01:01.323Z,2.5
2023-03-15T04:02:00.911Z,2.4
2023-03-15T04:03:01.502Z,2.5
2023-03-15T04:04:01.203Z,2.5
2023-03-15T04:05:01.663Z,2.5
2023-03-15T04:06:01.257Z,2.5
2023-03-15T04:07:00.824Z,2.4
2023-03-15T04:08:01.436Z,2.4
2023-03-15T04:09:01.056Z,2.5
2023-03-15T04:10:01.639Z,2.4
2023-03-15T04:11:01.230Z,2.5
2023-03-15T04:12:00.846Z,2.4
2023-03-15T04:13:01.401Z,2.4
2023-03-15T04:14:00.992Z,2.4
2023-03-15T04:15:01.592Z,2.5
2023-03-15T04:16:01.317Z,2.4
2023-03-15T04:17:01.767Z,2.4
2023-03-15T04:18:01.381Z,2.4
2023-03-15T04:19:00.975Z,2.4
2023-03-15T04:20:01.555Z,2.4
2023-03-15T04:21:01.144Z,2.4
2023-03-15T04:22:01.724Z,2.5
2023-03-15T04:23:01.340Z,2.4
2023-03-15T04:24:00.997Z,2.4
2023-03-15T04:25:01.496Z,2.3
2023-03-15T04:26:01.081Z,2.3
2023-03-15T04:27:01.670Z,2.3
2023-03-15T04:28:01.281Z,2.3
2023-03-15T04:29:00.857Z,2.3
2023-03-15T04:30:01.425Z,2.2
2023-03-15T04:31:01.110Z,2.2
2023-03-15T04:32:01.733Z,2.2
2023-03-15T04:33:01.298Z,2.2
2023-03-15T04:34:00.858Z,2.2
2023-03-15T04:35:01.439Z,2.3
2023-03-15T04:36:01.068Z,2.2
2023-03-15T04:37:01.609Z,2.3
2023-03-15T04:38:01.199Z,2.3
2023-03-15T04:39:01.772Z,2.3
2023-03-15T04:40:01.367Z,2.3
2023-03-15T04:41:00.974Z,2.3
2023-03-15T04:42:01.549Z,2.3
2023-03-15T04:43:01.144Z,2.2
2023-03-15T04:44:02.104Z,2.2
2023-03-15T04:45:01.366Z,2.2
2023-03-15T04:46:00.961Z,2.2
2023-03-15T04:47:01.618Z,2.2
2023-03-15T04:48:01.168Z,2.2
2023-03-15T04:49:00.827Z,2.2
2023-03-15T04:50:01.324Z,2.3
2023-03-15T04:51:00.937Z,2.3
2023-03-15T04:52:01.500Z,2.3
2023-03-15T04:53:01.090Z,2.3
2023-03-15T04:54:01.684Z,2.2
2023-03-15T04:55:01.275Z,2.3
2023-03-15T04:56:03.022Z,2.3
2023-03-15T04:57:01.403Z,2.3
2023-03-15T04:58:01.001Z,2.3
2023-03-15T04:59:01.603Z,2.3
2023-03-15T05:00:01.205Z,2.3
2023-03-15T05:01:01.842Z,2.3
2023-03-15T05:02:03.763Z,2.4
2023-03-15T05:03:01.072Z,2.4
2023-03-15T05:04:01.599Z,2.4
2023-03-15T05:05:01.200Z,2.4
2023-03-15T05:06:01.770Z,2.4
2023-03-15T05:07:01.363Z,2.4
2023-03-15T05:08:00.952Z,2.5
2023-03-15T05:09:01.557Z,2.5
2023-03-15T05:10:01.170Z,2.5
2023-03-15T05:11:01.730Z,2.5
2023-03-15T05:12:01.323Z,2.5
2023-03-15T05:13:00.912Z,2.5
2023-03-15T05:14:01.510Z,2.5
2023-03-15T05:15:01.199Z,2.5
2023-03-15T05:16:01.771Z,2.5
2023-03-15T05:17:01.329Z,2.5
2023-03-15T05:18:00.908Z,2.5
2023-03-15T05:19:01.505Z,2.5
2023-03-15T05:20:01.120Z,2.5
2023-03-15T05:21:01.689Z,2.5
2023-03-15T05:22:01.314Z,2.5
2023-03-15T05:23:00.869Z,2.6
2023-03-15T05:24:01.457Z,2.5
2023-03-15T05:25:01.055Z,2.5
2023-03-15T05:26:01.641Z,2.5
2023-03-15T05:27:01.249Z,2.5
2023-03-15T05:28:00.813Z,2.5
2023-03-15T05:29:01.399Z,2.5
2023-03-15T05:30:00.996Z,2.5
2023-03-15T05:31:01.568Z,2.5
2023-03-15T05:32:01.267Z,2.5
2023-03-15T05:33:01.741Z,2.5
2023-03-15T05:34:01.339Z,2.5
2023-03-15T05:35:00.957Z,2.5
2023-03-15T05:36:01.587Z,2.4
2023-03-15T05:37:01.199Z,2.4
2023-03-15T05:38:01.787Z,2.4
2023-03-15T05:39:01.380Z,2.5
2023-03-15T05:40:00.978Z,2.5
2023-03-15T05:41:01.547Z,2.5
2023-03-15T05:42:01.160Z,2.4
2023-03-15T05:43:01.755Z,2.4
2023-03-15T05:44:01.355Z,2.5
2023-03-15T05:45:00.948Z,2.4
2023-03-15T05:46:01.806Z,2.5
2023-03-15T05:47:01.174Z,2.5
2023-03-15T05:48:01.768Z,2.5
2023-03-15T05:49:01.470Z,2.5
2023-03-15T05:50:00.981Z,2.6
2023-03-15T05:51:01.577Z,2.5
2023-03-15T05:52:01.178Z,2.5
2023-03-15T05:53:01.752Z,2.5
2023-03-15T05:54:01.366Z,2.5
2023-03-15T05:55:00.967Z,2.5
2023-03-15T05:56:01.542Z,2.4
2023-03-15T05:57:01.135Z,2.4
2023-03-15T05:58:01.711Z,2.4
2023-03-15T05:59:01.330Z,2.4
2023-03-15T06:00:00.922Z,2.4
2023-03-15T06:01:01.496Z,2.4
2023-03-15T06:02:01.119Z,2.5
2023-03-15T06:03:01.736Z,2.4
2023-03-15T06:04:01.397Z,2.4
2023-03-15T06:05:00.915Z,2.4
2023-03-15T06:06:01.497Z,2.5
2023-03-15T06:07:01.111Z,2.4
2023-03-15T06:08:01.673Z,2.5
2023-03-15T06:09:01.280Z,2.5
2023-03-15T06:10:00.830Z,2.5
2023-03-15T06:11:01.407Z,2.5
2023-03-15T06:12:01.001Z,2.5
2023-03-15T06:13:01.585Z,2.6
2023-03-15T06:14:01.205Z,2.6
2023-03-15T06:15:01.781Z,2.6
2023-03-15T06:16:01.424Z,2.5
2023-03-15T06:17:01.027Z,2.5
2023-03-15T06:18:01.561Z,2.5
2023-03-15T06:19:01.146Z,2.6
2023-03-15T06:20:01.750Z,2.6
2023-03-15T06:21:01.352Z,2.6
2023-03-15T06:22:00.947Z,2.6
2023-03-15T06:23:01.548Z,2.5
2023-03-15T06:24:01.138Z,2.5
2023-03-15T06:25:01.741Z,2.5
2023-03-15T06:26:01.378Z,2.6
2023-03-15T06:27:00.989Z,2.5
2023-03-15T06:28:01.523Z,2.6
2023-03-15T06:29:01.131Z,2.6
2023-03-15T06:30:01.693Z,2.6
2023-03-15T06:31:01.299Z,2.7
2023-03-15T06:32:00.864Z,2.6
2023-03-15T06:33:01.466Z,2.6
2023-03-15T06:34:01.123Z,2.6
2023-03-15T06:35:01.686Z,2.5
2023-03-15T06:36:01.304Z,2.6
2023-03-15T06:37:00.844Z,2.6
2023-03-15T06:38:01.421Z,2.6
2023-03-15T06:39:01.058Z,2.6
2023-03-15T06:40:01.631Z,2.6
2023-03-15T06:41:01.310Z,2.6
2023-03-15T06:42:00.816Z,2.6
2023-03-15T06:43:01.391Z,2.6
2023-03-15T06:44:00.999Z,2.5
2023-03-15T06:45:01.564Z,2.6
2023-03-15T06:46:01.206Z,2.6
2023-03-15T06:47:01.747Z,2.6
2023-03-15T06:48:01.342Z,2.7
2023-03-15T06:49:00.952Z,2.7
2023-03-15T06:50:01.599Z,2.6
2023-03-15T06:51:01.177Z,2.7
2023-03-15T06:52:01.748Z,2.7
2023-03-15T06:53:01.334Z,2.7
2023-03-15T06:54:00.945Z,2.8
2023-03-15T06:55:01.526Z,2.9
2023-03-15T06:56:01.125Z,2.9
2023-03-15T06:57:01.721Z,2.9
2023-03-15T06:58:01.334Z,2.9
2023-03-15T06:59:00.949Z,2.8
2023-03-15T07:00:01.518Z,2.8
2023-03-15T07:01:01.125Z,2.9
2023-03-15T07:02:01.693Z,2.9
2023-03-15T07:03:01.404Z,2.9
2023-03-15T07:04:00.897Z,2.9
2023-03-15T07:05:01.466Z,2.9
2023-03-15T07:06:01.072Z,2.9
2023-03-15T07:07:01.646Z,2.9
2023-03-15T07:08:01.241Z,2.9
2023-03-15T07:09:00.848Z,3
2023-03-15T07:10:01.407Z,3
2023-03-15T07:11:01.041Z,3.1
2023-03-15T07:12:01.601Z,3.1
2023-03-15T07:13:01.197Z,3.2
2023-03-15T07:14:01.814Z,3.2
2023-03-15T07:15:01.456Z,3.3
2023-03-15T07:16:01.089Z,3.4
2023-03-15T07:17:01.600Z,3.4
2023-03-15T07:18:01.184Z,3.4
2023-03-15T07:19:01.827Z,3.3
2023-03-15T07:20:01.422Z,3.3
2023-03-15T07:21:01.037Z,3.3
2023-03-15T07:22:01.608Z,3.3
2023-03-15T07:23:01.207Z,3.2
2023-03-15T07:24:01.788Z,3.2
2023-03-15T07:25:01.396Z,3.2
2023-03-15T07:26:01.007Z,3.3
2023-03-15T07:27:01.590Z,3.3
2023-03-15T07:28:01.181Z,3.2
2023-03-15T07:29:01.755Z,3.1
2023-03-15T07:30:01.390Z,3.1
2023-03-15T07:31:01.015Z,3.1
2023-03-15T07:32:01.656Z,3.1
2023-03-15T07:33:01.320Z,3.2
2023-03-15T07:34:00.816Z,3.2
2023-03-15T07:35:01.389Z,3.3
2023-03-15T07:36:01.019Z,3.3
2023-03-15T07:37:01.561Z,3.3
2023-03-15T07:38:01.150Z,3.2
2023-03-15T07:39:01.731Z,3.3
2023-03-15T07:40:01.326Z,3.2
2023-03-15T07:41:00.936Z,3.3
2023-03-15T07:42:01.484Z,3.3
2023-03-15T07:43:01.099Z,3.3
2023-03-15T07:44:01.651Z,3.4
2023-03-15T07:45:01.242Z,3.4
2023-03-15T07:46:00.836Z,3.3
2023-03-15T07:47:01.479Z,3.4
2023-03-15T07:48:01.063Z,3.3
2023-03-15T07:49:01.627Z,3.4
2023-03-15T07:50:01.309Z,3.5
2023-03-15T07:51:00.829Z,3.5
2023-03-15T07:52:01.389Z,3.5
2023-03-15T07:53:00.988Z,3.6
2023-03-15T07:54:01.565Z,3.7
2023-03-15T07:55:01.178Z,3.8
2023-03-15T07:56:01.773Z,3.8
2023-03-15T07:57:01.393Z,3.8
2023-03-15T07:58:01.004Z,3.7
2023-03-15T07:59:01.605Z,3.6
2023-03-15T08:00:01.197Z,3.6
2023-03-15T08:01:01.780Z,3.5
2023-03-15T08:02:02.889Z,3.6
2023-03-15T08:03:01.689Z,3.4
2023-03-15T08:04:01.341Z,3.3
2023-03-15T08:05:00.939Z,3.3
2023-03-15T08:06:01.520Z,3.2
2023-03-15T08:07:01.105Z,3.3
2023-03-15T08:08:01.702Z,3.2
2023-03-15T08:09:01.310Z,3.3
2023-03-15T08:10:00.877Z,3.4
2023-03-15T08:11:01.449Z,3.5
2023-03-15T08:12:01.048Z,3.6
2023-03-15T08:13:01.616Z,3.6
2023-03-15T08:14:01.241Z,3.8
2023-03-15T08:15:00.820Z,3.8
2023-03-15T08:16:01.435Z,3.9
2023-03-15T08:17:01.040Z,3.8
2023-03-15T08:18:01.634Z,3.7
2023-03-15T08:19:01.243Z,3.8
2023-03-15T08:20:00.804Z,3.8
2023-03-15T08:21:01.377Z,3.8
2023-03-15T08:22:00.975Z,3.8
2023-03-15T08:23:01.549Z,3.8
2023-03-15T08:24:01.163Z,3.8
2023-03-15T08:25:01.726Z,3.9
2023-03-15T08:26:01.318Z,3.9
2023-03-15T08:27:00.912Z,4
2023-03-15T08:28:01.525Z,4.1
2023-03-15T08:29:01.117Z,4.2
2023-03-15T08:30:01.730Z,4.1
2023-03-15T08:31:01.348Z,4.1
2023-03-15T08:32:00.981Z,4.2
2023-03-15T08:33:01.526Z,4.3
2023-03-15T08:34:01.144Z,4.4
2023-03-15T08:35:01.745Z,4.4
2023-03-15T08:36:01.386Z,4.3
2023-03-15T08:37:00.978Z,4.1
2023-03-15T08:38:01.560Z,4
2023-03-15T08:39:01.174Z,3.8
2023-03-15T08:40:01.738Z,3.8
2023-03-15T08:41:01.345Z,3.8
2023-03-15T08:42:00.944Z,3.9
2023-03-15T08:43:01.517Z,3.9
2023-03-15T08:44:01.125Z,3.9
2023-03-15T08:45:01.690Z,4.1
2023-03-15T08:46:02.083Z,4.2
2023-03-15T08:47:00.867Z,4.2
2023-03-15T08:48:01.450Z,4.3
2023-03-15T08:49:01.034Z,4.4
2023-03-15T08:50:01.646Z,4.6
2023-03-15T08:51:01.317Z,4.6
2023-03-15T08:52:00.843Z,4.6
2023-03-15T08:53:01.423Z,4.6
2023-03-15T08:54:01.023Z,4.6
2023-03-15T08:55:01.601Z,4.4
2023-03-15T08:56:01.235Z,4.7
2023-03-15T08:57:00.783Z,4.8
2023-03-15T08:58:01.731Z,4.7
2023-03-15T08:59:00.898Z,4.8
2023-03-15T09:00:01.523Z,4.6
2023-03-15T09:01:01.134Z,4.4
2023-03-15T09:02:01.731Z,4.3
2023-03-15T09:03:01.434Z,4.2
2023-03-15T09:04:00.978Z,4.3
2023-03-15T09:05:01.531Z,4.3
2023-03-15T09:06:01.151Z,4.2
2023-03-15T09:07:01.762Z,4.4
2023-03-15T09:08:01.381Z,4.4
2023-03-15T09:09:00.966Z,4.4
2023-03-15T09:10:03.483Z,4.4
2023-03-15T09:11:01.097Z,4.4
2023-03-15T09:12:01.693Z,4.6
2023-03-15T09:13:01.313Z,4.8
2023-03-15T09:14:00.905Z,4.8
2023-03-15T09:15:01.493Z,4.9
2023-03-15T09:16:01.080Z,5
2023-03-15T09:17:01.715Z,5.2
2023-03-15T09:18:01.347Z,5.4
2023-03-15T09:19:01.062Z,5.4
2023-03-15T09:20:01.505Z,5.3
2023-03-15T09:21:01.152Z,5.2
2023-03-15T09:22:10.628Z,5.3
2023-03-15T09:23:01.277Z,5.2
2023-03-15T09:24:00.884Z,5.3
2023-03-15T09:25:01.451Z,5.2
2023-03-15T09:26:01.046Z,5.1
2023-03-15T09:27:01.618Z,5
2023-03-15T09:28:01.221Z,4.8
2023-03-15T09:29:00.817Z,4.8
2023-03-15T09:30:01.398Z,4.7
2023-03-15T09:31:01.054Z,4.7
2023-03-15T09:32:01.581Z,4.6
2023-03-15T09:33:01.234Z,4.6
2023-03-15T09:34:01.770Z,4.8
2023-03-15T09:35:01.384Z,4.9
2023-03-15T09:36:01.027Z,5.2
2023-03-15T09:37:01.557Z,5.1
2023-03-15T09:38:01.157Z,5.3
2023-03-15T09:39:01.766Z,5.6
2023-03-15T09:40:01.370Z,5.7
2023-03-15T09:41:00.963Z,5.7
2023-03-15T09:42:01.549Z,5.5
2023-03-15T09:43:01.146Z,5.4
2023-03-15T09:44:01.749Z,5.3
2023-03-15T09:45:01.339Z,5.3
2023-03-15T09:46:01.042Z,5.4
2023-03-15T09:47:01.501Z,5.5
2023-03-15T09:48:01.121Z,5.3
2023-03-15T09:49:01.714Z,5.3
2023-03-15T09:50:01.313Z,5.3
2023-03-15T09:51:00.955Z,5.3
2023-03-15T09:52:01.524Z,5.4
2023-03-15T09:53:01.133Z,5.6
2023-03-15T09:54:01.703Z,5.8
2023-03-15T09:55:01.300Z,5.9
2023-03-15T09:56:00.899Z,6
2023-03-15T09:57:01.483Z,5.8
2023-03-15T09:58:01.130Z,5.6
2023-03-15T09:59:01.699Z,5.7
2023-03-15T10:00:01.323Z,5.8
2023-03-15T10:01:00.904Z,5.8
2023-03-15T10:02:01.540Z,5.8
2023-03-15T10:03:01.159Z,5.9
2023-03-15T10:04:01.878Z,6
2023-03-15T10:05:01.514Z,5.9
2023-03-15T10:06:00.985Z,5.7
2023-03-15T10:07:01.610Z,5.5
2023-03-15T10:08:01.199Z,5.5
2023-03-15T10:09:00.788Z,5.3
2023-03-15T10:10:01.403Z,5.3
2023-03-15T10:11:01.007Z,5.3
2023-03-15T10:12:01.617Z,5.5
2023-03-15T10:13:01.209Z,5.8
2023-03-15T10:14:00.797Z,5.8
2023-03-15T10:15:01.383Z,6.1
2023-03-15T10:16:01.055Z,6.3
2023-03-15T10:17:01.594Z,6.3
2023-03-15T10:18:01.192Z,6.2
2023-03-15T10:19:01.785Z,6.2
2023-03-15T10:20:01.438Z,6.1
2023-03-15T10:21:01.022Z,6
2023-03-15T10:22:01.652Z,5.9
2023-03-15T10:23:01.299Z,5.9
2023-03-15T10:24:00.830Z,6.1
2023-03-15T10:25:01.415Z,6.4
2023-03-15T10:26:01.001Z,6.5
2023-03-15T10:27:01.611Z,6.7
2023-03-15T10:28:01.228Z,6.7
2023-03-15T10:29:00.803Z,6.5
2023-03-15T10:30:01.374Z,6.4
2023-03-15T10:31:01.009Z,6.3
2023-03-15T10:32:01.609Z,6.2
2023-03-15T10:33:01.296Z,6.1
2023-03-15T10:34:00.813Z,6
2023-03-15T10:35:01.381Z,6.1
2023-03-15T10:36:10.877Z,6
2023-03-15T10:37:01.539Z,6
2023-03-15T10:38:01.130Z,6.1
2023-03-15T10:39:01.778Z,6.3
2023-03-15T10:40:01.384Z,6.4
2023-03-15T10:41:00.959Z,6.5
2023-03-15T10:42:01.553Z,6.5
2023-03-15T10:43:01.150Z,6.5
2023-03-15T10:44:01.758Z,6.4
2023-03-15T10:45:01.360Z,6.6
2023-03-15T10:46:00.957Z,6.8
2023-03-15T10:47:04.909Z,6.8
2023-03-15T10:48:01.376Z,6.9
2023-03-15T10:49:00.809Z,6.8
2023-03-15T10:50:01.390Z,6.8
2023-03-15T10:51:00.994Z,6.9
2023-03-15T10:52:01.610Z,6.8
2023-03-15T10:53:01.198Z,6.7
2023-03-15T10:54:00.783Z,6.5
2023-03-15T10:55:04.305Z,6.5
2023-03-15T10:56:00.930Z,6.4
2023-03-15T10:57:01.524Z,6.4
2023-03-15T10:58:01.115Z,6.4
2023-03-15T10:59:12.171Z,6.4
2023-03-15T11:00:01.246Z,6.2
2023-03-15T11:01:00.859Z,6.3
2023-03-15T11:02:01.487Z,6.4
2023-03-15T11:03:01.182Z,6.5
2023-03-15T11:04:01.679Z,6.5
2023-03-15T11:05:01.283Z,6.6
2023-03-15T11:06:00.876Z,6.6
2023-03-15T11:07:01.440Z,6.7
2023-03-15T11:08:01.032Z,6.8
2023-03-15T11:09:01.613Z,6.9
2023-03-15T11:10:01.219Z,7.1
2023-03-15T11:11:00.848Z,7.1
2023-03-15T11:12:01.395Z,7.3
2023-03-15T11:13:01.016Z,7.4
2023-03-15T11:14:01.599Z,7.3
2023-03-15T11:15:01.191Z,7.3
2023-03-15T11:16:00.799Z,7.3
2023-03-15T11:17:01.366Z,7.3
2023-03-15T11:18:00.970Z,7.4
2023-03-15T11:19:01.598Z,7.5
2023-03-15T11:20:01.197Z,7.6
2023-03-15T11:21:00.782Z,7.4
2023-03-15T11:22:01.398Z,7.4
2023-03-15T11:23:01.011Z,7.4
2023-03-15T11:24:01.573Z,7.3
2023-03-15T11:25:01.184Z,7.5
2023-03-15T11:26:01.751Z,7.4
2023-03-15T11:27:01.374Z,7.6
2023-03-15T11:28:01.002Z,7.6
2023-03-15T11:29:01.557Z,7.4
2023-03-15T11:30:01.148Z,6.9
2023-03-15T11:31:01.757Z,6.8
2023-03-15T11:32:01.391Z,6.8
2023-03-15T11:33:01.065Z,6.7
2023-03-15T11:34:01.561Z,6.4
2023-03-15T11:35:01.150Z,6.3
2023-03-15T11:36:01.801Z,6.3
2023-03-15T11:37:08.242Z,6.3
2023-03-15T11:38:09.637Z,6.4
2023-03-15T11:39:03.054Z,6.5
2023-03-15T11:40:10.733Z,6.5
2023-03-15T11:41:01.250Z,6.5
2023-03-15T11:42:01.376Z,6.4
2023-03-15T11:43:01.028Z,6.3
2023-03-15T11:44:01.557Z,6.3
2023-03-15T11:45:01.221Z,6.3
2023-03-15T11:46:01.797Z,6.2
2023-03-15T11:47:01.436Z,6.3
2023-03-15T11:48:00.953Z,6.4
2023-03-15T11:49:01.522Z,6.6
2023-03-15T11:50:01.124Z,6.8
2023-03-15T11:51:01.693Z,7
2023-03-15T11:52:01.292Z,7.1
2023-03-15T11:53:00.930Z,7.2
2023-03-15T11:54:01.474Z,7.2
2023-03-15T11:55:01.092Z,7.2
2023-03-15T11:56:01.656Z,7.3
2023-03-15T11:57:01.255Z,7.3
2023-03-15T11:58:00.840Z,7.3
2023-03-15T11:59:01.449Z,7.2
2023-03-15T12:00:01.124Z,7.2
2023-03-15T12:01:01.616Z,7.1
2023-03-15T12:02:01.271Z,7.4
2023-03-15T12:03:00.796Z,7.5
2023-03-15T12:04:01.382Z,7.5
2023-03-15T12:05:06.362Z,7.7
2023-03-15T12:06:01.534Z,7.8
2023-03-15T12:07:01.122Z,8
2023-03-15T12:08:01.714Z,8.2
2023-03-15T12:09:01.363Z,8.2
2023-03-15T12:10:00.974Z,8.1
2023-03-15T12:11:01.542Z,8.3
2023-03-15T12:12:01.161Z,8.4
2023-03-15T12:13:01.728Z,8.5
2023-03-15T12:14:01.336Z,8.4
2023-03-15T12:15:01.045Z,8.4
2023-03-15T12:16:01.571Z,8.3
2023-03-15T12:17:01.181Z,8.3
2023-03-15T12:18:01.733Z,8.3
2023-03-15T12:19:01.317Z,8.5
2023-03-15T12:20:00.916Z,8.2
2023-03-15T12:21:01.511Z,8.1
2023-03-15T12:22:01.123Z,8.2
2023-03-15T12:23:01.711Z,8
2023-03-15T12:24:01.328Z,7.9
2023-03-15T12:25:00.917Z,8
2023-03-15T12:26:01.506Z,7.8
2023-03-15T12:27:01.153Z,7.7
2023-03-15T12:28:01.717Z,7.7
2023-03-15T12:29:01.351Z,7.7
2023-03-15T12:30:00.944Z,7.8
2023-03-15T12:31:01.635Z,7.7
2023-03-15T12:32:01.190Z,7.9
2023-03-15T12:33:00.851Z,8
2023-03-15T12:34:01.394Z,7.8
2023-03-15T12:35:00.991Z,7.8
2023-03-15T12:36:01.583Z,7.7
2023-03-15T12:37:01.203Z,7.5
2023-03-15T12:38:00.771Z,7.6
2023-03-15T12:39:01.354Z,7.6
2023-03-15T12:40:00.983Z,7.6
2023-03-15T12:41:01.559Z,7.4
2023-03-15T12:42:01.176Z,7.5
2023-03-15T12:43:01.766Z,7.7
2023-03-15T12:44:01.364Z,7.6
2023-03-15T12:45:00.962Z,7.5
2023-03-15T12:46:01.646Z,7.5
2023-03-15T12:47:01.225Z,7.5
2023-03-15T12:48:00.805Z,7.6
2023-03-15T12:49:01.362Z,7.6
2023-03-15T12:50:00.959Z,7.7
2023-03-15T12:51:01.539Z,7.7
2023-03-15T12:52:01.157Z,7.7
2023-03-15T12:53:01.742Z,7.7
2023-03-15T12:54:01.386Z,7.7
2023-03-15T12:55:00.955Z,7.5
2023-03-15T12:56:08.449Z,7.4
2023-03-15T12:57:01.074Z,7.4
2023-03-15T12:58:01.682Z,7.3
2023-03-15T12:59:01.288Z,7.3
2023-03-15T13:00:00.866Z,7.3
2023-03-15T13:01:01.537Z,7.3
2023-03-15T13:02:01.123Z,7.3
2023-03-15T13:03:02.154Z,7.3
2023-03-15T13:04:01.318Z,7.5
2023-03-15T13:05:00.894Z,7.7
2023-03-15T13:06:04.616Z,7.9
2023-03-15T13:07:01.042Z,7.9
2023-03-15T13:08:01.657Z,8
2023-03-15T13:09:01.246Z,8.1
2023-03-15T13:10:00.833Z,8.1
2023-03-15T13:11:01.435Z,8
2023-03-15T13:12:01.030Z,8.2
2023-03-15T13:13:01.612Z,8.3
2023-03-15T13:14:01.202Z,8.3
2023-03-15T13:15:00.787Z,8.5
2023-03-15T13:16:01.434Z,8.4
2023-03-15T13:17:01.036Z,8.4
2023-03-15T13:18:01.618Z,8.3
2023-03-15T13:19:01.237Z,8.4
2023-03-15T13:20:00.791Z,8.4
2023-03-15T13:21:01.396Z,8.5
2023-03-15T13:22:00.992Z,8.3
2023-03-15T13:23:01.567Z,8.5
2023-03-15T13:24:01.163Z,8.7
2023-03-15T13:25:01.750Z,8.6
2023-03-15T13:26:01.362Z,8.7
2023-03-15T13:27:00.952Z,8.9
2023-03-15T13:28:01.522Z,8.8
2023-03-15T13:29:01.139Z,8.9
2023-03-15T13:30:01.698Z,8.9
2023-03-15T13:31:01.321Z,9.2
2023-03-15T13:32:00.952Z,9.2
2023-03-15T13:33:01.618Z,9.2
2023-03-15T13:34:01.174Z,9
2023-03-15T13:35:01.790Z,8.8
2023-03-15T13:36:01.549Z,8.8
2023-03-15T13:37:01.038Z,9.2
2023-03-15T13:38:01.597Z,8.9
2023-03-15T13:39:01.204Z,8.9
2023-03-15T13:40:00.779Z,8.9
2023-03-15T13:41:01.368Z,9
2023-03-15T13:42:01.004Z,9.1
2023-03-15T13:43:01.597Z,9
2023-03-15T13:44:01.195Z,8.8
2023-03-15T13:45:00.796Z,8.6
2023-03-15T13:46:01.368Z,8.5
2023-03-15T13:47:01.090Z,8.4
2023-03-15T13:48:01.565Z,8.3